sensor_id;sensor_type;location;lat;lon;timestamp;P1;durP1;ratioP1;P2;durP2;ratioP2
67721;SDS011;58309;45.292;11.820;2022-10-28T00:02:15;72.15;;;32.47;;
67721;SDS011;58309;45.292;11.820;2022-10-28T00:04:41;68.88;;;29.38;;
67721;SDS011;58309;45.292;11.820;2022-10-28T00:07:06;73.25;;;31.73;;
67721;SDS011;58309;45.292;11.820;2022-10-28T00:09:32;80.60;;;31.85;;
67721;SDS011;58309;45.292;11.820;2022-10-28T00:11:57;76.45;;;31.83;;
67721;SDS011;58309;45.292;11.820;2022-10-28T00:14:23;73.50;;;32.72;;
67721;SDS011;58309;45.292;11.820;2022-10-28T00:16:49;81.40;;;34.08;;
67721;SDS011;58309;45.292;11.820;2022-10-28T00:19:15;89.25;;;35.88;;
67721;SDS011;58309;45.292;11.820;2022-10-28T00:21:41;85.88;;;33.13;;
67721;SDS011;58309;45.292;11.820;2022-10-28T00:24:08;94.60;;;34.08;;
67721;SDS011;58309;45.292;11.820;2022-10-28T00:26:36;91.30;;;34.10;;
67721;SDS011;58309;45.292;11.820;2022-10-28T00:29:13;83.68;;;32.85;;
67721;SDS011;58309;45.292;11.820;2022-10-28T00:31:42;91.85;;;32.00;;
67721;SDS011;58309;45.292;11.820;2022-10-28T00:34:10;97.43;;;35.35;;
67721;SDS011;58309;45.292;11.820;2022-10-28T00:36:39;93.78;;;34.88;;
67721;SDS011;58309;45.292;11.820;2022-10-28T00:39:13;78.03;;;31.88;;
67721;SDS011;58309;45.292;11.820;2022-10-28T00:41:43;74.80;;;31.35;;
67721;SDS011;58309;45.292;11.820;2022-10-28T00:49:39;69.57;;;29.55;;
67721;SDS011;58309;45.292;11.820;2022-10-28T00:52:08;80.18;;;31.10;;
67721;SDS011;58309;45.292;11.820;2022-10-28T00:54:36;74.53;;;30.10;;
67721;SDS011;58309;45.292;11.820;2022-10-28T00:57:03;69.28;;;29.52;;
67721;SDS011;58309;45.292;11.820;2022-10-28T00:59:34;65.55;;;30.05;;
67721;SDS011;58309;45.292;11.820;2022-10-28T01:02:02;66.35;;;29.80;;
67721;SDS011;58309;45.292;11.820;2022-10-28T01:04:29;70.72;;;30.73;;
67721;SDS011;58309;45.292;11.820;2022-10-28T01:06:55;87.75;;;32.97;;
67721;SDS011;58309;45.292;11.820;2022-10-28T01:09:21;88.30;;;33.10;;
67721;SDS011;58309;45.292;11.820;2022-10-28T01:20:09;105.65;;;35.30;;
67721;SDS011;58309;45.292;11.820;2022-10-28T01:31:06;108.20;;;35.28;;
67721;SDS011;58309;45.292;11.820;2022-10-28T01:33:38;114.22;;;37.05;;
67721;SDS011;58309;45.292;11.820;2022-10-28T01:36:38;100.32;;;34.67;;
67721;SDS011;58309;45.292;11.820;2022-10-28T01:39:16;92.55;;;34.53;;
67721;SDS011;58309;45.292;11.820;2022-10-28T01:41:53;106.72;;;35.88;;
67721;SDS011;58309;45.292;11.820;2022-10-28T01:49:24;85.78;;;32.75;;
67721;SDS011;58309;45.292;11.820;2022-10-28T01:51:57;111.97;;;37.47;;
67721;SDS011;58309;45.292;11.820;2022-10-28T01:54:28;115.03;;;37.33;;
67721;SDS011;58309;45.292;11.820;2022-10-28T01:56:56;116.45;;;35.60;;
67721;SDS011;58309;45.292;11.820;2022-10-28T01:59:27;112.03;;;35.85;;
67721;SDS011;58309;45.292;11.820;2022-10-28T02:01:54;106.22;;;34.78;;
67721;SDS011;58309;45.292;11.820;2022-10-28T02:04:20;119.20;;;36.22;;
67721;SDS011;58309;45.292;11.820;2022-10-28T02:06:46;126.63;;;39.92;;
67721;SDS011;58309;45.292;11.820;2022-10-28T02:22:47;88.35;;;34.78;;
67721;SDS011;58309;45.292;11.820;2022-10-28T02:25:19;85.78;;;33.10;;
67721;SDS011;58309;45.292;11.820;2022-10-28T02:30:31;87.40;;;32.38;;
67721;SDS011;58309;45.292;11.820;2022-10-28T02:33:05;82.20;;;32.10;;
67721;SDS011;58309;45.292;11.820;2022-10-28T02:35:37;76.07;;;31.50;;
67721;SDS011;58309;45.292;11.820;2022-10-28T02:38:10;91.53;;;33.05;;
67721;SDS011;58309;45.292;11.820;2022-10-28T02:40:41;85.47;;;32.50;;
67721;SDS011;58309;45.292;11.820;2022-10-28T02:43:11;81.50;;;30.95;;
67721;SDS011;58309;45.292;11.820;2022-10-28T02:45:40;62.13;;;28.05;;
67721;SDS011;58309;45.292;11.820;2022-10-28T02:48:09;73.10;;;29.58;;
67721;SDS011;58309;45.292;11.820;2022-10-28T02:50:42;78.95;;;29.85;;
67721;SDS011;58309;45.292;11.820;2022-10-28T02:53:14;76.93;;;30.10;;
67721;SDS011;58309;45.292;11.820;2022-10-28T02:55:45;85.30;;;31.83;;
67721;SDS011;58309;45.292;11.820;2022-10-28T02:58:16;61.80;;;29.58;;
67721;SDS011;58309;45.292;11.820;2022-10-28T03:00:44;61.38;;;29.73;;
67721;SDS011;58309;45.292;11.820;2022-10-28T03:03:11;65.00;;;28.95;;
67721;SDS011;58309;45.292;11.820;2022-10-28T03:05:37;67.75;;;29.23;;
67721;SDS011;58309;45.292;11.820;2022-10-28T03:08:03;66.72;;;29.13;;
67721;SDS011;58309;45.292;11.820;2022-10-28T03:10:29;83.68;;;32.70;;
67721;SDS011;58309;45.292;11.820;2022-10-28T03:12:54;80.80;;;32.25;;
67721;SDS011;58309;45.292;11.820;2022-10-28T03:15:20;93.97;;;34.83;;
67721;SDS011;58309;45.292;11.820;2022-10-28T03:17:45;84.15;;;32.85;;
67721;SDS011;58309;45.292;11.820;2022-10-28T03:20:11;101.60;;;34.53;;
67721;SDS011;58309;45.292;11.820;2022-10-28T03:22:36;95.95;;;34.88;;
67721;SDS011;58309;45.292;11.820;2022-10-28T03:25:02;90.35;;;33.72;;
67721;SDS011;58309;45.292;11.820;2022-10-28T03:27:28;83.03;;;31.02;;
67721;SDS011;58309;45.292;11.820;2022-10-28T03:29:54;82.22;;;31.17;;
67721;SDS011;58309;45.292;11.820;2022-10-28T03:32:19;82.35;;;31.13;;
67721;SDS011;58309;45.292;11.820;2022-10-28T03:34:45;78.35;;;30.95;;
67721;SDS011;58309;45.292;11.820;2022-10-28T03:37:11;90.20;;;31.40;;
67721;SDS011;58309;45.292;11.820;2022-10-28T03:39:37;93.60;;;33.08;;
67721;SDS011;58309;45.292;11.820;2022-10-28T03:42:03;77.63;;;29.88;;
67721;SDS011;58309;45.292;11.820;2022-10-28T03:44:28;45.83;;;23.75;;
67721;SDS011;58309;45.292;11.820;2022-10-28T03:46:54;52.28;;;25.35;;
67721;SDS011;58309;45.292;11.820;2022-10-28T03:49:19;44.90;;;25.23;;
67721;SDS011;58309;45.292;11.820;2022-10-28T03:51:45;44.90;;;24.58;;
67721;SDS011;58309;45.292;11.820;2022-10-28T03:54:10;51.20;;;27.15;;
67721;SDS011;58309;45.292;11.820;2022-10-28T03:56:36;47.60;;;25.88;;
67721;SDS011;58309;45.292;11.820;2022-10-28T03:59:05;48.60;;;26.73;;
67721;SDS011;58309;45.292;11.820;2022-10-28T04:01:32;48.05;;;24.98;;
67721;SDS011;58309;45.292;11.820;2022-10-28T04:03:58;48.80;;;25.17;;
67721;SDS011;58309;45.292;11.820;2022-10-28T04:06:23;61.95;;;28.00;;
67721;SDS011;58309;45.292;11.820;2022-10-28T04:08:49;65.50;;;28.35;;
67721;SDS011;58309;45.292;11.820;2022-10-28T04:11:15;83.20;;;33.40;;
67721;SDS011;58309;45.292;11.820;2022-10-28T04:13:40;85.22;;;33.63;;
67721;SDS011;58309;45.292;11.820;2022-10-28T04:16:06;92.32;;;33.88;;
67721;SDS011;58309;45.292;11.820;2022-10-28T04:18:31;84.57;;;34.03;;
67721;SDS011;58309;45.292;11.820;2022-10-28T04:20:57;79.75;;;32.58;;
67721;SDS011;58309;45.292;11.820;2022-10-28T04:23:22;94.65;;;34.53;;
67721;SDS011;58309;45.292;11.820;2022-10-28T04:25:52;87.55;;;33.20;;
67721;SDS011;58309;45.292;11.820;2022-10-28T04:30:47;76.90;;;30.38;;
67721;SDS011;58309;45.292;11.820;2022-10-28T04:33:13;87.93;;;31.85;;
67721;SDS011;58309;45.292;11.820;2022-10-28T04:35:38;82.03;;;33.45;;
67721;SDS011;58309;45.292;11.820;2022-10-28T04:38:06;90.63;;;33.60;;
67721;SDS011;58309;45.292;11.820;2022-10-28T04:40:32;71.03;;;29.88;;
67721;SDS011;58309;45.292;11.820;2022-10-28T04:42:57;79.75;;;32.08;;
67721;SDS011;58309;45.292;11.820;2022-10-28T04:45:23;81.30;;;32.55;;
67721;SDS011;58309;45.292;11.820;2022-10-28T04:47:48;84.47;;;31.02;;
67721;SDS011;58309;45.292;11.820;2022-10-28T04:50:14;73.40;;;30.20;;
67721;SDS011;58309;45.292;11.820;2022-10-28T04:52:39;85.65;;;31.13;;
67721;SDS011;58309;45.292;11.820;2022-10-28T04:55:05;74.20;;;30.70;;
67721;SDS011;58309;45.292;11.820;2022-10-28T04:57:30;84.32;;;30.98;;
67721;SDS011;58309;45.292;11.820;2022-10-28T04:59:56;79.03;;;31.20;;
67721;SDS011;58309;45.292;11.820;2022-10-28T05:02:22;75.40;;;31.10;;
67721;SDS011;58309;45.292;11.820;2022-10-28T05:04:47;76.97;;;31.02;;
67721;SDS011;58309;45.292;11.820;2022-10-28T05:07:13;77.38;;;31.70;;
67721;SDS011;58309;45.292;11.820;2022-10-28T05:09:38;80.57;;;30.88;;
67721;SDS011;58309;45.292;11.820;2022-10-28T05:12:04;74.00;;;30.08;;
67721;SDS011;58309;45.292;11.820;2022-10-28T05:14:30;71.35;;;30.25;;
67721;SDS011;58309;45.292;11.820;2022-10-28T05:16:56;65.43;;;29.85;;
67721;SDS011;58309;45.292;11.820;2022-10-28T05:19:21;71.20;;;31.08;;
67721;SDS011;58309;45.292;11.820;2022-10-28T05:21:47;63.90;;;30.27;;
67721;SDS011;58309;45.292;11.820;2022-10-28T05:24:12;66.28;;;29.08;;
67721;SDS011;58309;45.292;11.820;2022-10-28T05:26:37;60.13;;;28.02;;
67721;SDS011;58309;45.292;11.820;2022-10-28T05:29:03;70.78;;;30.02;;
67721;SDS011;58309;45.292;11.820;2022-10-28T05:31:28;67.63;;;29.75;;
67721;SDS011;58309;45.292;11.820;2022-10-28T05:33:54;64.32;;;28.50;;
67721;SDS011;58309;45.292;11.820;2022-10-28T05:36:19;61.30;;;28.35;;
67721;SDS011;58309;45.292;11.820;2022-10-28T05:38:45;69.93;;;29.85;;
67721;SDS011;58309;45.292;11.820;2022-10-28T05:41:10;64.15;;;31.77;;
67721;SDS011;58309;45.292;11.820;2022-10-28T05:43:36;69.72;;;33.20;;
67721;SDS011;58309;45.292;11.820;2022-10-28T05:46:02;67.72;;;32.15;;
67721;SDS011;58309;45.292;11.820;2022-10-28T05:48:29;69.47;;;31.60;;
67721;SDS011;58309;45.292;11.820;2022-10-28T05:50:54;71.65;;;30.98;;
67721;SDS011;58309;45.292;11.820;2022-10-28T05:53:19;77.60;;;33.03;;
67721;SDS011;58309;45.292;11.820;2022-10-28T05:55:45;64.22;;;31.75;;
67721;SDS011;58309;45.292;11.820;2022-10-28T05:58:10;66.82;;;31.48;;
67721;SDS011;58309;45.292;11.820;2022-10-28T06:00:36;60.80;;;30.67;;
67721;SDS011;58309;45.292;11.820;2022-10-28T06:03:06;61.78;;;30.77;;
67721;SDS011;58309;45.292;11.820;2022-10-28T06:05:36;67.63;;;30.17;;
67721;SDS011;58309;45.292;11.820;2022-10-28T06:08:03;80.57;;;32.38;;
67721;SDS011;58309;45.292;11.820;2022-10-28T06:10:29;77.55;;;30.90;;
67721;SDS011;58309;45.292;11.820;2022-10-28T06:12:56;66.68;;;32.33;;
67721;SDS011;58309;45.292;11.820;2022-10-28T06:15:21;64.07;;;31.38;;
67721;SDS011;58309;45.292;11.820;2022-10-28T06:17:47;68.38;;;31.55;;
67721;SDS011;58309;45.292;11.820;2022-10-28T06:20:13;66.90;;;31.02;;
67721;SDS011;58309;45.292;11.820;2022-10-28T06:22:47;62.88;;;30.90;;
67721;SDS011;58309;45.292;11.820;2022-10-28T06:25:16;71.70;;;31.83;;
67721;SDS011;58309;45.292;11.820;2022-10-28T06:27:42;64.03;;;31.80;;
67721;SDS011;58309;45.292;11.820;2022-10-28T06:30:08;70.95;;;33.42;;
67721;SDS011;58309;45.292;11.820;2022-10-28T06:32:34;73.30;;;31.70;;
67721;SDS011;58309;45.292;11.820;2022-10-28T06:34:59;69.38;;;32.17;;
67721;SDS011;58309;45.292;11.820;2022-10-28T06:37:25;66.57;;;31.45;;
67721;SDS011;58309;45.292;11.820;2022-10-28T06:39:50;62.35;;;30.00;;
67721;SDS011;58309;45.292;11.820;2022-10-28T06:42:17;60.20;;;30.98;;
67721;SDS011;58309;45.292;11.820;2022-10-28T06:44:43;56.72;;;30.40;;
67721;SDS011;58309;45.292;11.820;2022-10-28T06:47:09;55.22;;;30.73;;
67721;SDS011;58309;45.292;11.820;2022-10-28T06:49:34;56.35;;;29.98;;
67721;SDS011;58309;45.292;11.820;2022-10-28T06:52:00;60.70;;;30.10;;
67721;SDS011;58309;45.292;11.820;2022-10-28T06:54:25;54.03;;;29.48;;
67721;SDS011;58309;45.292;11.820;2022-10-28T06:56:51;52.88;;;28.55;;
67721;SDS011;58309;45.292;11.820;2022-10-28T06:59:16;53.17;;;28.75;;
67721;SDS011;58309;45.292;11.820;2022-10-28T07:01:42;48.15;;;28.10;;
67721;SDS011;58309;45.292;11.820;2022-10-28T07:04:11;44.83;;;25.73;;
67721;SDS011;58309;45.292;11.820;2022-10-28T07:06:37;45.05;;;26.65;;
67721;SDS011;58309;45.292;11.820;2022-10-28T07:09:03;43.92;;;25.35;;
67721;SDS011;58309;45.292;11.820;2022-10-28T07:11:29;46.65;;;25.38;;
67721;SDS011;58309;45.292;11.820;2022-10-28T07:13:54;43.00;;;24.95;;
67721;SDS011;58309;45.292;11.820;2022-10-28T07:16:20;45.03;;;25.48;;
67721;SDS011;58309;45.292;11.820;2022-10-28T07:18:45;41.03;;;24.83;;
67721;SDS011;58309;45.292;11.820;2022-10-28T07:21:11;44.45;;;25.10;;
67721;SDS011;58309;45.292;11.820;2022-10-28T07:23:38;37.47;;;24.02;;
67721;SDS011;58309;45.292;11.820;2022-10-28T07:26:04;39.80;;;23.23;;
67721;SDS011;58309;45.292;11.820;2022-10-28T07:28:30;35.13;;;22.27;;
67721;SDS011;58309;45.292;11.820;2022-10-28T07:30:59;40.55;;;23.20;;
67721;SDS011;58309;45.292;11.820;2022-10-28T07:33:25;40.08;;;24.05;;
67721;SDS011;58309;45.292;11.820;2022-10-28T07:35:51;38.10;;;24.60;;
67721;SDS011;58309;45.292;11.820;2022-10-28T07:38:16;49.13;;;25.60;;
67721;SDS011;58309;45.292;11.820;2022-10-28T07:40:42;48.38;;;25.10;;
67721;SDS011;58309;45.292;11.820;2022-10-28T07:43:07;46.05;;;25.98;;
67721;SDS011;58309;45.292;11.820;2022-10-28T07:45:33;45.20;;;26.17;;
67721;SDS011;58309;45.292;11.820;2022-10-28T07:48:00;45.15;;;26.30;;
67721;SDS011;58309;45.292;11.820;2022-10-28T07:50:25;44.20;;;25.83;;
67721;SDS011;58309;45.292;11.820;2022-10-28T07:52:51;44.58;;;24.38;;
67721;SDS011;58309;45.292;11.820;2022-10-28T07:55:16;43.90;;;26.35;;
67721;SDS011;58309;45.292;11.820;2022-10-28T07:57:42;48.85;;;27.73;;
67721;SDS011;58309;45.292;11.820;2022-10-28T08:00:07;46.72;;;26.98;;
67721;SDS011;58309;45.292;11.820;2022-10-28T08:02:33;48.25;;;27.85;;
67721;SDS011;58309;45.292;11.820;2022-10-28T08:04:58;50.80;;;27.63;;
67721;SDS011;58309;45.292;11.820;2022-10-28T08:07:26;53.53;;;28.27;;
67721;SDS011;58309;45.292;11.820;2022-10-28T08:09:51;49.60;;;26.67;;
67721;SDS011;58309;45.292;11.820;2022-10-28T08:12:17;50.42;;;25.17;;
67721;SDS011;58309;45.292;11.820;2022-10-28T08:14:42;43.50;;;25.42;;
67721;SDS011;58309;45.292;11.820;2022-10-28T08:17:08;38.00;;;21.77;;
67721;SDS011;58309;45.292;11.820;2022-10-28T08:19:33;42.70;;;21.55;;
67721;SDS011;58309;45.292;11.820;2022-10-28T08:21:59;37.42;;;20.10;;
67721;SDS011;58309;45.292;11.820;2022-10-28T08:24:26;37.97;;;19.50;;
67721;SDS011;58309;45.292;11.820;2022-10-28T08:26:51;33.10;;;19.70;;
67721;SDS011;58309;45.292;11.820;2022-10-28T08:29:17;31.65;;;19.13;;
67721;SDS011;58309;45.292;11.820;2022-10-28T08:31:42;32.17;;;19.10;;
67721;SDS011;58309;45.292;11.820;2022-10-28T08:34:08;31.48;;;18.42;;
67721;SDS011;58309;45.292;11.820;2022-10-28T08:36:33;26.08;;;17.85;;
67721;SDS011;58309;45.292;11.820;2022-10-28T08:38:59;30.27;;;17.30;;
67721;SDS011;58309;45.292;11.820;2022-10-28T08:41:27;26.50;;;16.92;;
67721;SDS011;58309;45.292;11.820;2022-10-28T08:44:11;23.83;;;15.40;;
67721;SDS011;58309;45.292;11.820;2022-10-28T08:49:35;25.17;;;15.77;;
67721;SDS011;58309;45.292;11.820;2022-10-28T08:54:38;23.65;;;15.10;;
67721;SDS011;58309;45.292;11.820;2022-10-28T08:57:09;20.55;;;14.07;;
67721;SDS011;58309;45.292;11.820;2022-10-28T08:59:45;22.00;;;13.68;;
67721;SDS011;58309;45.292;11.820;2022-10-28T09:02:22;27.73;;;13.55;;
67721;SDS011;58309;45.292;11.820;2022-10-28T09:04:51;19.73;;;13.35;;
67721;SDS011;58309;45.292;11.820;2022-10-28T09:07:46;21.42;;;13.20;;
67721;SDS011;58309;45.292;11.820;2022-10-28T09:10:15;22.30;;;13.27;;
67721;SDS011;58309;45.292;11.820;2022-10-28T09:18:17;19.23;;;13.38;;
67721;SDS011;58309;45.292;11.820;2022-10-28T09:20:49;22.85;;;13.35;;
67721;SDS011;58309;45.292;11.820;2022-10-28T09:31:40;29.33;;;16.73;;
67721;SDS011;58309;45.292;11.820;2022-10-28T09:34:14;28.35;;;17.40;;
67721;SDS011;58309;45.292;11.820;2022-10-28T09:36:51;24.65;;;16.88;;
67721;SDS011;58309;45.292;11.820;2022-10-28T09:39:24;27.35;;;18.48;;
67721;SDS011;58309;45.292;11.820;2022-10-28T09:41:53;26.85;;;17.90;;
67721;SDS011;58309;45.292;11.820;2022-10-28T09:44:42;32.42;;;18.00;;
67721;SDS011;58309;45.292;11.820;2022-10-28T09:47:36;31.48;;;20.55;;
67721;SDS011;58309;45.292;11.820;2022-10-28T09:50:03;35.70;;;20.52;;
67721;SDS011;58309;45.292;11.820;2022-10-28T09:52:38;36.35;;;20.42;;
67721;SDS011;58309;45.292;11.820;2022-10-28T09:55:22;30.73;;;19.85;;
67721;SDS011;58309;45.292;11.820;2022-10-28T09:57:48;30.55;;;18.38;;
67721;SDS011;58309;45.292;11.820;2022-10-28T10:00:14;32.65;;;17.73;;
67721;SDS011;58309;45.292;11.820;2022-10-28T10:02:41;26.27;;;16.98;;
67721;SDS011;58309;45.292;11.820;2022-10-28T10:05:15;29.92;;;19.02;;
67721;SDS011;58309;45.292;11.820;2022-10-28T10:07:47;33.17;;;20.25;;
67721;SDS011;58309;45.292;11.820;2022-10-28T10:13:14;28.17;;;18.75;;
67721;SDS011;58309;45.292;11.820;2022-10-28T10:15:44;32.53;;;19.90;;
67721;SDS011;58309;45.292;11.820;2022-10-28T10:18:14;29.73;;;18.07;;
67721;SDS011;58309;45.292;11.820;2022-10-28T10:20:48;32.00;;;19.45;;
67721;SDS011;58309;45.292;11.820;2022-10-28T10:23:30;35.03;;;19.80;;
67721;SDS011;58309;45.292;11.820;2022-10-28T10:28:31;26.65;;;18.42;;
67721;SDS011;58309;45.292;11.820;2022-10-28T10:31:01;33.00;;;20.92;;
67721;SDS011;58309;45.292;11.820;2022-10-28T10:33:35;39.83;;;20.77;;
67721;SDS011;58309;45.292;11.820;2022-10-28T10:36:05;32.10;;;20.83;;
67721;SDS011;58309;45.292;11.820;2022-10-28T10:38:45;38.90;;;22.90;;
67721;SDS011;58309;45.292;11.820;2022-10-28T10:41:40;37.83;;;21.77;;
67721;SDS011;58309;45.292;11.820;2022-10-28T10:46:44;38.75;;;22.85;;
67721;SDS011;58309;45.292;11.820;2022-10-28T10:49:11;44.42;;;23.40;;
67721;SDS011;58309;45.292;11.820;2022-10-28T10:51:39;37.03;;;22.67;;
67721;SDS011;58309;45.292;11.820;2022-10-28T10:54:14;40.95;;;24.60;;
67721;SDS011;58309;45.292;11.820;2022-10-28T10:56:40;40.40;;;24.52;;
67721;SDS011;58309;45.292;11.820;2022-10-28T10:59:14;40.50;;;24.63;;
67721;SDS011;58309;45.292;11.820;2022-10-28T11:01:54;40.83;;;25.80;;
67721;SDS011;58309;45.292;11.820;2022-10-28T11:04:23;43.80;;;26.27;;
67721;SDS011;58309;45.292;11.820;2022-10-28T11:06:52;47.08;;;27.30;;
67721;SDS011;58309;45.292;11.820;2022-10-28T11:09:22;47.47;;;26.57;;
67721;SDS011;58309;45.292;11.820;2022-10-28T11:11:57;44.17;;;27.33;;
67721;SDS011;58309;45.292;11.820;2022-10-28T11:16:54;45.30;;;27.63;;
67721;SDS011;58309;45.292;11.820;2022-10-28T11:27:23;49.63;;;28.73;;
67721;SDS011;58309;45.292;11.820;2022-10-28T11:30:15;48.33;;;28.55;;
67721;SDS011;58309;45.292;11.820;2022-10-28T11:46:12;44.58;;;26.20;;
67721;SDS011;58309;45.292;11.820;2022-10-28T12:00:33;38.72;;;23.75;;
67721;SDS011;58309;45.292;11.820;2022-10-28T12:03:11;35.60;;;21.88;;
67721;SDS011;58309;45.292;11.820;2022-10-28T12:11:59;30.65;;;16.27;;
67721;SDS011;58309;45.292;11.820;2022-10-28T12:14:37;30.13;;;18.80;;
67721;SDS011;58309;45.292;11.820;2022-10-28T12:17:26;34.45;;;16.45;;
67721;SDS011;58309;45.292;11.820;2022-10-28T12:20:06;29.58;;;16.75;;
67721;SDS011;58309;45.292;11.820;2022-10-28T12:22:53;30.23;;;17.05;;
67721;SDS011;58309;45.292;11.820;2022-10-28T12:25:23;34.88;;;16.90;;
67721;SDS011;58309;45.292;11.820;2022-10-28T12:27:53;29.40;;;16.40;;
67721;SDS011;58309;45.292;11.820;2022-10-28T12:30:26;23.65;;;13.20;;
67721;SDS011;58309;45.292;11.820;2022-10-28T12:33:00;26.80;;;15.35;;
67721;SDS011;58309;45.292;11.820;2022-10-28T12:35:56;25.85;;;14.00;;
67721;SDS011;58309;45.292;11.820;2022-10-28T12:38:32;25.35;;;11.30;;
67721;SDS011;58309;45.292;11.820;2022-10-28T12:41:18;20.58;;;11.82;;
67721;SDS011;58309;45.292;11.820;2022-10-28T12:43:58;21.08;;;12.05;;
67721;SDS011;58309;45.292;11.820;2022-10-28T12:49:09;23.85;;;13.13;;
67721;SDS011;58309;45.292;11.820;2022-10-28T12:51:49;22.35;;;12.80;;
67721;SDS011;58309;45.292;11.820;2022-10-28T12:56:44;12.10;;;8.38;;
67721;SDS011;58309;45.292;11.820;2022-10-28T12:59:36;18.20;;;10.35;;
67721;SDS011;58309;45.292;11.820;2022-10-28T13:02:04;23.52;;;12.55;;
67721;SDS011;58309;45.292;11.820;2022-10-28T13:04:39;25.80;;;13.00;;
67721;SDS011;58309;45.292;11.820;2022-10-28T13:12:51;27.77;;;14.07;;
67721;SDS011;58309;45.292;11.820;2022-10-28T13:20:50;28.55;;;13.45;;
67721;SDS011;58309;45.292;11.820;2022-10-28T13:23:58;24.20;;;11.93;;
67721;SDS011;58309;45.292;11.820;2022-10-28T13:26:34;19.20;;;11.15;;
67721;SDS011;58309;45.292;11.820;2022-10-28T13:29:02;20.70;;;10.90;;
67721;SDS011;58309;45.292;11.820;2022-10-28T13:34:05;24.02;;;12.68;;
67721;SDS011;58309;45.292;11.820;2022-10-28T13:36:32;19.48;;;11.02;;
67721;SDS011;58309;45.292;11.820;2022-10-28T13:39:02;20.02;;;10.70;;
67721;SDS011;58309;45.292;11.820;2022-10-28T13:49:31;16.67;;;9.07;;
67721;SDS011;58309;45.292;11.820;2022-10-28T13:54:31;11.45;;;7.38;;
67721;SDS011;58309;45.292;11.820;2022-10-28T13:57:07;14.27;;;9.25;;
67721;SDS011;58309;45.292;11.820;2022-10-28T13:59:48;18.15;;;10.60;;
67721;SDS011;58309;45.292;11.820;2022-10-28T14:02:20;20.77;;;10.23;;
67721;SDS011;58309;45.292;11.820;2022-10-28T14:05:02;23.75;;;10.07;;
67721;SDS011;58309;45.292;11.820;2022-10-28T14:07:31;18.05;;;10.23;;
67721;SDS011;58309;45.292;11.820;2022-10-28T14:10:12;23.75;;;11.68;;
67721;SDS011;58309;45.292;11.820;2022-10-28T14:13:18;18.17;;;11.32;;
67721;SDS011;58309;45.292;11.820;2022-10-28T14:15:46;18.20;;;9.90;;
67721;SDS011;58309;45.292;11.820;2022-10-28T14:33:32;16.13;;;9.02;;
67721;SDS011;58309;45.292;11.820;2022-10-28T14:36:06;16.02;;;9.05;;
67721;SDS011;58309;45.292;11.820;2022-10-28T14:38:59;15.88;;;9.43;;
67721;SDS011;58309;45.292;11.820;2022-10-28T14:49:59;18.20;;;8.55;;
67721;SDS011;58309;45.292;11.820;2022-10-28T14:52:29;12.88;;;7.35;;
67721;SDS011;58309;45.292;11.820;2022-10-28T14:54:58;16.45;;;7.63;;
67721;SDS011;58309;45.292;11.820;2022-10-28T14:57:27;16.65;;;7.40;;
67721;SDS011;58309;45.292;11.820;2022-10-28T14:59:59;16.35;;;8.15;;
67721;SDS011;58309;45.292;11.820;2022-10-28T15:02:27;17.85;;;9.07;;
67721;SDS011;58309;45.292;11.820;2022-10-28T15:07:38;17.58;;;7.68;;
67721;SDS011;58309;45.292;11.820;2022-10-28T15:13:03;21.30;;;8.57;;
67721;SDS011;58309;45.292;11.820;2022-10-28T15:15:32;22.50;;;8.35;;
67721;SDS011;58309;45.292;11.820;2022-10-28T15:18:01;19.83;;;9.43;;
67721;SDS011;58309;45.292;11.820;2022-10-28T15:20:42;16.23;;;9.23;;
67721;SDS011;58309;45.292;11.820;2022-10-28T15:25:43;18.38;;;9.27;;
67721;SDS011;58309;45.292;11.820;2022-10-28T15:28:10;19.27;;;9.95;;
67721;SDS011;58309;45.292;11.820;2022-10-28T15:30:37;19.48;;;10.85;;
67721;SDS011;58309;45.292;11.820;2022-10-28T15:33:17;21.13;;;10.15;;
67721;SDS011;58309;45.292;11.820;2022-10-28T15:35:43;20.23;;;9.77;;
67721;SDS011;58309;45.292;11.820;2022-10-28T15:38:30;15.75;;;9.65;;
67721;SDS011;58309;45.292;11.820;2022-10-28T15:44:00;21.00;;;10.40;;
67721;SDS011;58309;45.292;11.820;2022-10-28T15:46:27;17.88;;;10.00;;
67721;SDS011;58309;45.292;11.820;2022-10-28T15:48:58;22.10;;;9.98;;
67721;SDS011;58309;45.292;11.820;2022-10-28T15:51:25;21.40;;;10.77;;
67721;SDS011;58309;45.292;11.820;2022-10-28T15:53:52;29.60;;;10.52;;
67721;SDS011;58309;45.292;11.820;2022-10-28T15:56:28;23.65;;;10.13;;
67721;SDS011;58309;45.292;11.820;2022-10-28T16:01:45;29.80;;;11.35;;
67721;SDS011;58309;45.292;11.820;2022-10-28T16:06:42;23.63;;;10.85;;
67721;SDS011;58309;45.292;11.820;2022-10-28T16:11:58;21.65;;;11.27;;
67721;SDS011;58309;45.292;11.820;2022-10-28T16:14:36;28.40;;;12.85;;
67721;SDS011;58309;45.292;11.820;2022-10-28T16:19:36;22.13;;;11.18;;
67721;SDS011;58309;45.292;11.820;2022-10-28T16:22:04;31.40;;;12.80;;
67721;SDS011;58309;45.292;11.820;2022-10-28T16:24:30;31.70;;;12.48;;
67721;SDS011;58309;45.292;11.820;2022-10-28T16:29:56;31.40;;;13.93;;
67721;SDS011;58309;45.292;11.820;2022-10-28T16:32:26;36.33;;;15.10;;
67721;SDS011;58309;45.292;11.820;2022-10-28T16:34:56;34.63;;;15.20;;
67721;SDS011;58309;45.292;11.820;2022-10-28T16:37:26;28.73;;;15.30;;
67721;SDS011;58309;45.292;11.820;2022-10-28T16:39:53;34.70;;;15.07;;
67721;SDS011;58309;45.292;11.820;2022-10-28T16:42:20;32.20;;;16.10;;
67721;SDS011;58309;45.292;11.820;2022-10-28T16:44:46;33.40;;;16.50;;
67721;SDS011;58309;45.292;11.820;2022-10-28T16:47:13;36.58;;;18.25;;
67721;SDS011;58309;45.292;11.820;2022-10-28T16:49:40;38.22;;;17.40;;
67721;SDS011;58309;45.292;11.820;2022-10-28T16:52:08;35.47;;;17.20;;
67721;SDS011;58309;45.292;11.820;2022-10-28T16:54:40;32.63;;;16.77;;
67721;SDS011;58309;45.292;11.820;2022-10-28T16:57:06;35.53;;;17.38;;
67721;SDS011;58309;45.292;11.820;2022-10-28T16:59:32;34.38;;;16.35;;
67721;SDS011;58309;45.292;11.820;2022-10-28T17:01:58;29.25;;;16.80;;
67721;SDS011;58309;45.292;11.820;2022-10-28T17:04:23;32.40;;;16.50;;
67721;SDS011;58309;45.292;11.820;2022-10-28T17:06:49;34.03;;;16.60;;
67721;SDS011;58309;45.292;11.820;2022-10-28T17:09:15;33.95;;;16.90;;
67721;SDS011;58309;45.292;11.820;2022-10-28T17:11:40;33.75;;;16.63;;
67721;SDS011;58309;45.292;11.820;2022-10-28T17:14:05;30.23;;;15.27;;
67721;SDS011;58309;45.292;11.820;2022-10-28T17:16:31;30.25;;;16.75;;
67721;SDS011;58309;45.292;11.820;2022-10-28T17:18:57;38.90;;;17.63;;
67721;SDS011;58309;45.292;11.820;2022-10-28T17:21:22;44.08;;;19.20;;
67721;SDS011;58309;45.292;11.820;2022-10-28T17:23:48;38.58;;;16.83;;
67721;SDS011;58309;45.292;11.820;2022-10-28T17:26:13;38.22;;;17.67;;
67721;SDS011;58309;45.292;11.820;2022-10-28T17:28:39;29.63;;;16.52;;
67721;SDS011;58309;45.292;11.820;2022-10-28T17:31:05;33.47;;;17.90;;
67721;SDS011;58309;45.292;11.820;2022-10-28T17:33:32;37.03;;;18.05;;
67721;SDS011;58309;45.292;11.820;2022-10-28T17:36:02;34.28;;;19.75;;